createdAt,value
2023-08-28T00:00:00.525Z,96711.65
2023-08-28T00:02:28.535Z,96712.94
2023-08-28T00:04:56.536Z,96714.23
2023-08-28T00:07:24.509Z,96712.77
2023-08-28T00:09:52.700Z,96713.92
2023-08-28T00:12:20.824Z,96711.50
2023-08-28T00:14:48.991Z,96709.69
2023-08-28T00:17:19.183Z,96709.09
2023-08-28T00:19:47.191Z,96711.46
2023-08-28T00:22:15.173Z,96708.02
2023-08-28T00:24:43.114Z,96708.56
2023-08-28T00:27:10.948Z,96708.34
2023-08-28T00:29:38.828Z,96706.08
2023-08-28T00:32:06.971Z,96703.86
2023-08-28T00:34:34.964Z,96703.77
2023-08-28T00:37:02.899Z,96700.86
2023-08-28T00:39:30.851Z,96696.38
2023-08-28T00:41:58.756Z,96698.54
2023-08-28T00:44:26.728Z,96699.42
2023-08-28T00:46:54.779Z,96700.46
2023-08-28T00:49:23.006Z,96699.10
2023-08-28T00:51:51.071Z,96696.73
2023-08-28T00:54:19.095Z,96695.88
2023-08-28T00:56:49.083Z,96695.95
2023-08-28T00:59:17.811Z,96697.98
2023-08-28T01:01:46.156Z,96696.30
2023-08-28T01:04:14.280Z,96699.21
2023-08-28T01:07:08.719Z,96703.23
2023-08-28T01:09:51.773Z,96706.79
2023-08-28T01:12:45.099Z,96706.30
2023-08-28T01:15:22.765Z,96708.31
2023-08-28T01:18:01.905Z,96704.04
2023-08-28T01:20:31.786Z,96703.88
2023-08-28T01:23:15.722Z,96708.98
2023-08-28T01:25:44.179Z,96708.33
2023-08-28T01:28:12.123Z,96715.77
2023-08-28T01:30:39.987Z,96717.19
2023-08-28T01:33:08.084Z,96719.14
2023-08-28T01:35:36.567Z,96716.64
2023-08-28T01:38:32.349Z,96715.02
2023-08-28T01:41:04.911Z,96712.95
2023-08-28T01:43:38.545Z,96709.04
2023-08-28T01:46:08.067Z,96705.88
2023-08-28T01:48:36.910Z,96706.08
2023-08-28T01:51:05.326Z,96700.70
2023-08-28T01:53:33.310Z,96699.95
2023-08-28T01:56:10.264Z,96703.82
2023-08-28T01:58:43.585Z,96698.95
2023-08-28T02:01:12.107Z,96699.23
2023-08-28T02:03:40.634Z,96705.03
2023-08-28T02:06:09.460Z,96702.27
2023-08-28T02:08:37.931Z,96704.24
2023-08-28T02:11:06.687Z,96700.94
2023-08-28T02:13:34.773Z,96699.41
2023-08-28T02:16:04.023Z,96698.46
2023-08-28T02:18:32.054Z,96694.56
2023-08-28T02:21:00.187Z,96692.71
2023-08-28T02:23:29.879Z,96695.95
2023-08-28T02:25:57.806Z,96693.31
2023-08-28T02:28:26.598Z,96689.16
2023-08-28T02:30:54.650Z,96685.53
2023-08-28T02:33:23.175Z,96683.16
2023-08-28T02:35:51.069Z,96683.16
2023-08-28T02:38:20.115Z,96682.24
2023-08-28T02:40:48.083Z,96684.02
2023-08-28T02:43:15.959Z,96684.31
2023-08-28T02:45:43.934Z,96688.88
2023-08-28T02:48:12.031Z,96686.59
2023-08-28T02:50:39.960Z,96687.59
2023-08-28T02:53:07.903Z,96687.95
2023-08-28T02:55:41.235Z,96694.35
2023-08-28T02:58:10.685Z,96696.77
2023-08-28T03:00:39.476Z,96702.41
2023-08-28T03:03:07.846Z,96698.96
2023-08-28T03:05:36.208Z,96698.10
2023-08-28T03:08:05.203Z,96697.95
2023-08-28T03:10:36.001Z,96697.02
2023-08-28T03:13:04.918Z,96698.19
2023-08-28T03:15:33.235Z,96702.92
2023-08-28T03:18:01.213Z,96702.33
2023-08-28T03:20:29.123Z,96699.91
2023-08-28T03:22:57.082Z,96702.89
2023-08-28T03:25:25.412Z,96703.98
2023-08-28T03:27:53.925Z,96699.77
2023-08-28T03:30:21.848Z,96695.02
2023-08-28T03:32:49.874Z,96695.55
2023-08-28T03:35:17.992Z,96698.89
2023-08-28T03:37:45.954Z,96703.89
2023-08-28T03:40:13.938Z,96708.65
2023-08-28T03:42:41.813Z,96710.75
2023-08-28T03:45:10.180Z,96717.11
2023-08-28T03:47:38.201Z,96722.80
2023-08-28T03:50:06.496Z,96725.98
2023-08-28T03:52:34.314Z,96728.75
2023-08-28T03:55:02.565Z,96729.54
2023-08-28T03:57:30.831Z,96730.33
2023-08-28T03:59:58.811Z,96727.13
2023-08-28T04:02:26.682Z,96728.99
2023-08-28T04:05:06.726Z,96727.60
2023-08-28T04:07:36.350Z,96722.10
2023-08-28T04:10:04.684Z,96719.84
2023-08-28T04:12:33.772Z,96721.60
2023-08-28T04:15:01.697Z,96723.73
2023-08-28T04:17:29.726Z,96727.64
2023-08-28T04:19:57.744Z,96726.59
2023-08-28T04:22:25.639Z,96724.65
2023-08-28T04:24:55.218Z,96728.40
2023-08-28T04:27:23.091Z,96728.38
2023-08-28T04:29:52.709Z,96728.04
2023-08-28T04:32:22.405Z,96732.67
2023-08-28T04:34:50.416Z,96732.20
2023-08-28T04:37:18.424Z,96731.14
2023-08-28T04:39:46.254Z,96732.35
2023-08-28T04:42:16.011Z,96731.43
2023-08-28T04:44:44.054Z,96731.23
2023-08-28T04:47:13.862Z,96731.61
2023-08-28T04:49:42.471Z,96729.15
2023-08-28T04:52:10.423Z,96728.11
2023-08-28T04:54:38.396Z,96724.48
2023-08-28T04:57:06.444Z,96724.21
2023-08-28T04:59:34.590Z,96721.69
2023-08-28T05:02:02.558Z,96719.96
2023-08-28T05:04:30.479Z,96716.71
2023-08-28T05:06:58.473Z,96708.29
2023-08-28T05:09:26.563Z,96707.05
2023-08-28T05:11:54.494Z,96707.91
2023-08-28T05:14:22.372Z,96707.39
2023-08-28T05:16:50.422Z,96708.66
2023-08-28T05:19:18.264Z,96708.80
2023-08-28T05:21:46.129Z,96710.49
2023-08-28T05:24:14.182Z,96714.09
2023-08-28T05:26:42.034Z,96720.96
2023-08-28T05:29:10.068Z,96722.38
2023-08-28T05:31:38.065Z,96724.04
2023-08-28T05:34:06.198Z,96724.41
2023-08-28T05:36:34.175Z,96723.05
2023-08-28T05:39:02.273Z,96725.73
2023-08-28T05:41:30.355Z,96724.84
2023-08-28T05:43:58.549Z,96728.33
2023-08-28T05:46:26.579Z,96730.46
2023-08-28T05:48:54.496Z,96731.77
2023-08-28T05:51:22.508Z,96732.54
2023-08-28T05:53:50.581Z,96733.27
2023-08-28T05:56:18.653Z,96734.10
2023-08-28T05:58:46.563Z,96730.75
2023-08-28T06:01:14.523Z,96732.23
2023-08-28T06:03:42.554Z,96730.45
2023-08-28T06:06:13.169Z,96732.52
2023-08-28T06:08:41.010Z,96733.08
2023-08-28T06:11:09.080Z,96728.70
2023-08-28T06:13:37.496Z,96720.89
2023-08-28T06:16:05.977Z,96717.41
2023-08-28T06:18:33.966Z,96715.91
2023-08-28T06:21:01.999Z,96719.36
2023-08-28T06:23:31.127Z,96715.98
2023-08-28T06:25:59.127Z,96711.42
2023-08-28T06:28:26.947Z,96714.61
2023-08-28T06:30:54.995Z,96710.09
2023-08-28T06:33:23.044Z,96709.36
2023-08-28T06:35:51.105Z,96713.56
2023-08-28T06:38:19.125Z,96718.05
2023-08-28T06:40:58.542Z,96719.59
2023-08-28T06:43:26.742Z,96720.29
2023-08-28T06:45:54.728Z,96724.98
2023-08-28T06:48:22.716Z,96728.51
2023-08-28T06:50:52.591Z,96728.66
2023-08-28T06:53:20.831Z,96737.45
2023-08-28T06:55:48.857Z,96737.40
2023-08-28T06:58:16.736Z,96736.48
2023-08-28T07:00:44.646Z,96736.48
2023-08-28T07:03:12.885Z,96732.30
2023-08-28T07:05:41.637Z,96726.33
2023-08-28T07:08:09.915Z,96726.44
2023-08-28T07:10:37.948Z,96724.52
2023-08-28T07:13:06.995Z,96719.80
2023-08-28T07:15:34.950Z,96716.70
2023-08-28T07:18:04.336Z,96712.73
2023-08-28T07:20:32.981Z,96710.02
2023-08-28T07:23:01.632Z,96713.45
2023-08-28T07:25:29.914Z,96714.77
2023-08-28T07:27:57.864Z,96709.90
2023-08-28T07:30:25.868Z,96711.11
2023-08-28T07:32:53.820Z,96711.41
2023-08-28T07:35:21.752Z,96711.61
2023-08-28T07:37:49.606Z,96709.05
2023-08-28T07:40:17.574Z,96707.91
2023-08-28T07:42:45.381Z,96708.91
2023-08-28T07:45:13.135Z,96708.09
2023-08-28T07:47:42.471Z,96707.16
2023-08-28T07:50:12.959Z,96706.27
2023-08-28T07:52:42.230Z,96706.02
2023-08-28T07:55:10.662Z,96709.00
2023-08-28T07:57:38.581Z,96710.61
2023-08-28T08:00:07.670Z,96714.63
2023-08-28T08:02:35.789Z,96715.42
2023-08-28T08:05:05.348Z,96710.21
2023-08-28T08:07:36.130Z,96709.73
2023-08-28T08:10:04.446Z,96709.09
2023-08-28T08:12:32.377Z,96704.27
2023-08-28T08:15:00.395Z,96698.23
2023-08-28T08:17:28.982Z,96692.77
2023-08-28T08:19:56.982Z,96689.36
2023-08-28T08:22:26.134Z,96684.55
2023-08-28T08:24:54.102Z,96685.02
2023-08-28T08:27:21.980Z,96682.30
2023-08-28T08:29:50.187Z,96678.16
2023-08-28T08:32:18.342Z,96671.86
2023-08-28T08:34:46.507Z,96666.30
2023-08-28T08:37:16.222Z,96662.00
2023-08-28T08:39:44.097Z,96660.64
2023-08-28T08:42:12.145Z,96653.51
2023-08-28T08:44:41.034Z,96650.23
2023-08-28T08:47:09.009Z,96643.79
2023-08-28T08:49:42.189Z,96641.23
2023-08-28T08:52:14.108Z,96638.10
2023-08-28T08:54:43.201Z,96639.42
2023-08-28T08:57:28.148Z,96641.64
2023-08-28T08:59:56.618Z,96636.10
2023-08-28T09:02:26.991Z,96629.95
2023-08-28T09:04:55.755Z,96626.88
2023-08-28T09:07:26.501Z,96622.83
2023-08-28T09:09:55.202Z,96615.02
2023-08-28T09:12:23.231Z,96608.05
2023-08-28T09:14:51.233Z,96606.55
2023-08-28T09:17:19.956Z,96608.15
2023-08-28T09:19:48.928Z,96610.14
2023-08-28T09:22:17.326Z,96603.96
2023-08-28T09:24:45.411Z,96601.17
2023-08-28T09:27:15.263Z,96595.46
2023-08-28T09:29:43.276Z,96593.98
2023-08-28T09:32:11.974Z,96595.17
2023-08-28T09:34:42.769Z,96593.13
2023-08-28T09:37:13.891Z,96592.97
2023-08-28T09:39:42.609Z,96590.84
2023-08-28T09:42:11.389Z,96584.42
2023-08-28T09:44:39.794Z,96585.69
2023-08-28T09:47:07.912Z,96587.10
2023-08-28T09:49:44.298Z,96581.90
2023-08-28T09:52:13.010Z,96581.91
2023-08-28T09:54:44.121Z,96579.14
2023-08-28T09:57:18.655Z,96576.90
2023-08-28T09:59:46.602Z,96574.23
2023-08-28T10:02:23.015Z,96568.44
2023-08-28T10:04:53.891Z,96571.77
2023-08-28T10:07:25.118Z,96566.83
2023-08-28T10:09:57.273Z,96565.90
2023-08-28T10:12:26.893Z,96561.96
2023-08-28T10:14:56.189Z,96560.58
2023-08-28T10:17:28.625Z,96559.63
2023-08-28T10:19:59.606Z,96559.79
2023-08-28T10:22:29.966Z,96562.36
2023-08-28T10:24:59.415Z,96559.13
2023-08-28T10:27:28.012Z,96553.34
2023-08-28T10:29:56.264Z,96552.42
2023-08-28T10:32:25.074Z,96545.73
2023-08-28T10:34:53.904Z,96544.18
2023-08-28T10:37:28.391Z,96537.11
2023-08-28T10:40:02.565Z,96531.36
2023-08-28T10:42:31.780Z,96527.46
2023-08-28T10:45:02.308Z,96524.73
2023-08-28T10:47:31.283Z,96517.73
2023-08-28T10:49:59.408Z,96514.58
2023-08-28T10:52:28.428Z,96510.02
2023-08-28T10:55:00.293Z,96512.17
2023-08-28T10:57:29.428Z,96510.45
2023-08-28T11:00:02.147Z,96510.52
2023-08-28T11:03:08.218Z,96506.98
2023-08-28T11:05:39.995Z,96500.91
2023-08-28T11:08:13.236Z,96496.34
2023-08-28T11:10:45.745Z,96494.85
2023-08-28T11:13:25.195Z,96492.25
2023-08-28T11:16:04.575Z,96486.97
2023-08-28T11:18:32.966Z,96484.91
2023-08-28T11:21:07.513Z,96483.02
2023-08-28T11:23:55.881Z,96476.71
2023-08-28T11:26:23.897Z,96477.29
2023-08-28T11:28:52.102Z,96477.83
2023-08-28T11:31:21.070Z,96472.38
2023-08-28T11:33:55.607Z,96469.39
2023-08-28T11:36:23.630Z,96459.90
2023-08-28T11:38:56.234Z,96456.66
2023-08-28T11:41:24.489Z,96457.38
2023-08-28T11:43:53.363Z,96451.05
2023-08-28T11:46:25.925Z,96445.17
2023-08-28T11:48:54.078Z,96450.35
2023-08-28T11:51:26.217Z,96447.48
2023-08-28T11:53:54.141Z,96447.39
2023-08-28T11:56:22.041Z,96439.86
2023-08-28T11:58:50.581Z,96433.19
2023-08-28T12:01:18.946Z,96433.01
2023-08-28T12:03:46.909Z,96430.38
2023-08-28T12:06:18.924Z,96422.80
2023-08-28T12:08:48.306Z,96422.46
2023-08-28T12:11:16.658Z,96421.02
2023-08-28T12:13:44.794Z,96420.66
2023-08-28T12:16:19.216Z,96418.09
2023-08-28T12:18:53.037Z,96419.32
2023-08-28T12:21:35.394Z,96416.14
2023-08-28T12:24:03.857Z,96414.75
2023-08-28T12:26:31.800Z,96417.43
2023-08-28T12:28:59.930Z,96411.13
2023-08-28T12:31:35.376Z,96409.86
2023-08-28T12:34:10.669Z,96407.18
2023-08-28T12:36:40.425Z,96403.94
2023-08-28T12:39:16.805Z,96401.30
2023-08-28T12:41:54.598Z,96399.84
2023-08-28T12:44:23.794Z,96394.85
2023-08-28T12:46:52.227Z,96390.28
2023-08-28T12:49:21.012Z,96388.21
2023-08-28T12:51:51.466Z,96384.50
2023-08-28T12:54:22.340Z,96385.98
2023-08-28T12:56:51.208Z,96383.14
2023-08-28T12:59:20.601Z,96381.41
2023-08-28T13:01:49.180Z,96384.41
2023-08-28T13:04:17.785Z,96383.69
2023-08-28T13:06:45.845Z,96382.98
2023-08-28T13:09:13.967Z,96382.64
2023-08-28T13:11:42.148Z,96377.27
2023-08-28T13:14:10.542Z,96375.78
2023-08-28T13:16:38.696Z,96368.92
2023-08-28T13:19:07.822Z,96366.23
2023-08-28T13:21:35.723Z,96365.30
2023-08-28T13:24:04.591Z,96364.90
2023-08-28T13:26:33.034Z,96371.91
2023-08-28T13:29:01.207Z,96369.55
2023-08-28T13:31:30.613Z,96368.70
2023-08-28T13:33:58.748Z,96366.80
2023-08-28T13:36:27.469Z,96366.48
2023-08-28T13:38:55.473Z,96366.95
2023-08-28T13:41:24.329Z,96363.23
2023-08-28T13:43:52.241Z,96361.70
2023-08-28T13:46:20.229Z,96361.06
2023-08-28T13:48:48.704Z,96361.46
2023-08-28T13:51:16.675Z,96358.70
2023-08-28T13:53:44.626Z,96357.67
2023-08-28T13:56:13.667Z,96354.91
2023-08-28T13:58:41.708Z,96350.83
2023-08-28T14:01:10.116Z,96349.88
2023-08-28T14:03:38.234Z,96347.83
2023-08-28T14:06:06.659Z,96348.49
2023-08-28T14:08:35.595Z,96343.78
2023-08-28T14:11:07.864Z,96344.11
2023-08-28T14:13:37.956Z,96339.61
2023-08-28T14:16:06.513Z,96339.77
2023-08-28T14:18:35.080Z,96337.45
2023-08-28T14:21:05.294Z,96334.52
2023-08-28T14:23:34.815Z,96332.12
2023-08-28T14:26:04.315Z,96333.90
2023-08-28T14:28:32.801Z,96331.60
2023-08-28T14:31:01.113Z,96332.61
2023-08-28T14:33:29.091Z,96330.09
2023-08-28T14:35:57.010Z,96327.92
2023-08-28T14:38:25.619Z,96328.47
2023-08-28T14:40:54.718Z,96326.34
2023-08-28T14:43:22.768Z,96322.48
2023-08-28T14:45:53.239Z,96319.54
2023-08-28T14:48:21.356Z,96317.26
2023-08-28T14:50:49.751Z,96318.34
2023-08-28T14:53:17.704Z,96318.16
2023-08-28T14:55:51.568Z,96315.48
2023-08-28T14:58:19.532Z,96314.54
2023-08-28T15:00:51.289Z,96313.41
2023-08-28T15:03:19.615Z,96310.90
2023-08-28T15:05:47.988Z,96309.55
2023-08-28T15:08:17.877Z,96306.98
2023-08-28T15:10:47.550Z,96305.90
2023-08-28T15:13:16.607Z,96306.79
2023-08-28T15:15:50.812Z,96306.73
2023-08-28T15:18:19.399Z,96306.20
2023-08-28T15:20:48.111Z,96305.40
2023-08-28T15:23:18.334Z,96302.80
2023-08-28T15:25:46.793Z,96300.33
2023-08-28T15:28:15.200Z,96296.52
2023-08-28T15:30:43.248Z,96297.45
2023-08-28T15:33:12.492Z,96294.11
2023-08-28T15:35:40.505Z,96294.94
2023-08-28T15:38:10.089Z,96295.67
2023-08-28T15:40:38.072Z,96292.41
2023-08-28T15:43:06.618Z,96292.06
2023-08-28T15:45:35.027Z,96287.40
2023-08-28T15:48:06.409Z,96283.45
2023-08-28T15:50:34.885Z,96281.36
2023-08-28T15:53:02.933Z,96278.67
2023-08-28T15:55:33.569Z,96278.08
2023-08-28T15:58:01.677Z,96279.19
2023-08-28T16:00:29.614Z,96279.79
2023-08-28T16:02:57.857Z,96283.02
2023-08-28T16:05:26.602Z,96284.36
2023-08-28T16:07:54.504Z,96285.17
2023-08-28T16:10:22.451Z,96285.39
2023-08-28T16:12:50.694Z,96287.54
2023-08-28T16:15:18.838Z,96284.93
2023-08-28T16:17:47.323Z,96286.23
2023-08-28T16:20:15.803Z,96285.44
2023-08-28T16:22:43.942Z,96285.30
2023-08-28T16:25:11.887Z,96286.27
2023-08-28T16:27:44.966Z,96284.95
2023-08-28T16:30:13.848Z,96282.45
2023-08-28T16:32:43.053Z,96277.98
2023-08-28T16:35:12.522Z,96281.28
2023-08-28T16:37:41.520Z,96281.11
2023-08-28T16:40:10.829Z,96286.24
2023-08-28T16:42:38.690Z,96287.31
2023-08-28T16:45:07.438Z,96289.78
2023-08-28T16:47:35.448Z,96289.82
2023-08-28T16:50:04.506Z,96285.32
2023-08-28T16:52:32.904Z,96287.27
2023-08-28T16:55:00.916Z,96287.79
2023-08-28T16:57:31.365Z,96287.66
2023-08-28T17:00:00.124Z,96288.25
2023-08-28T17:02:28.123Z,96289.38
2023-08-28T17:04:56.111Z,96287.62
2023-08-28T17:07:26.143Z,96285.63
2023-08-28T17:09:54.102Z,96294.64
2023-08-28T17:12:22.761Z,96290.40
2023-08-28T17:14:51.005Z,96289.81
2023-08-28T17:17:19.002Z,96286.00
2023-08-28T17:19:46.887Z,96286.26
2023-08-28T17:22:15.321Z,96284.18
2023-08-28T17:24:43.240Z,96285.13
2023-08-28T17:27:11.130Z,96286.33
2023-08-28T17:29:39.096Z,96291.29
2023-08-28T17:32:07.381Z,96289.86
2023-08-28T17:34:35.303Z,96291.55
2023-08-28T17:37:03.405Z,96290.80
2023-08-28T17:39:31.424Z,96292.92
2023-08-28T17:41:59.314Z,96293.27
2023-08-28T17:44:28.078Z,96296.95
2023-08-28T17:46:56.522Z,96297.57
2023-08-28T17:49:24.597Z,96296.27
2023-08-28T17:51:52.587Z,96298.09
2023-08-28T17:54:20.658Z,96299.67
2023-08-28T17:56:49.762Z,96296.21
2023-08-28T17:59:17.707Z,96295.14
2023-08-28T18:01:47.140Z,96291.07
2023-08-28T18:04:17.487Z,96291.89
2023-08-28T18:06:47.441Z,96292.54
2023-08-28T18:09:15.852Z,96292.89
2023-08-28T18:11:47.167Z,96296.46
2023-08-28T18:14:15.375Z,96290.48
2023-08-28T18:16:45.998Z,96291.14
2023-08-28T18:19:13.896Z,96292.09
2023-08-28T18:21:42.037Z,96293.24
2023-08-28T18:24:10.118Z,96294.30
2023-08-28T18:26:38.149Z,96292.19
2023-08-28T18:29:06.098Z,96293.08
2023-08-28T18:31:34.053Z,96295.40
2023-08-28T18:34:02.058Z,96293.92
2023-08-28T18:36:30.043Z,96294.55
2023-08-28T18:38:58.118Z,96287.99
2023-08-28T18:41:26.092Z,96286.98
2023-08-28T18:43:54.257Z,96284.93
2023-08-28T18:46:22.262Z,96290.86
2023-08-28T18:48:50.244Z,96289.98
2023-08-28T18:51:19.698Z,96288.70
2023-08-28T18:53:47.714Z,96287.56
2023-08-28T18:56:15.654Z,96287.17
2023-08-28T18:58:44.073Z,96289.27
2023-08-28T19:01:12.282Z,96291.80
2023-08-28T19:03:40.913Z,96289.89
2023-08-28T19:06:09.306Z,96284.77
2023-08-28T19:08:37.660Z,96285.55
2023-08-28T19:11:06.825Z,96285.57
2023-08-28T19:13:34.893Z,96285.65
2023-08-28T19:16:03.037Z,96287.70
2023-08-28T19:18:31.129Z,96288.02
2023-08-28T19:21:02.913Z,96291.09
2023-08-28T19:23:31.993Z,96290.56
2023-08-28T19:26:00.121Z,96289.36
2023-08-28T19:28:28.428Z,96290.95
2023-08-28T19:30:56.591Z,96288.15
2023-08-28T19:33:24.630Z,96286.96
2023-08-28T19:35:52.725Z,96283.54
2023-08-28T19:38:20.718Z,96281.03
2023-08-28T19:40:51.155Z,96282.44
2023-08-28T19:43:19.176Z,96280.02
2023-08-28T19:45:47.281Z,96275.23
2023-08-28T19:48:15.476Z,96270.76
2023-08-28T19:50:43.456Z,96270.16
2023-08-28T19:53:13.087Z,96266.21
2023-08-28T19:55:42.270Z,96270.76
2023-08-28T19:58:10.428Z,96268.91
2023-08-28T20:00:38.401Z,96272.31
2023-08-28T20:03:06.439Z,96271.52
2023-08-28T20:05:34.422Z,96268.85
2023-08-28T20:08:02.779Z,96268.77
2023-08-28T20:10:31.604Z,96268.63
2023-08-28T20:12:59.641Z,96272.55
2023-08-28T20:15:27.771Z,96267.80
2023-08-28T20:17:55.911Z,96272.52
2023-08-28T20:20:24.091Z,96277.26
2023-08-28T20:22:52.103Z,96281.88
2023-08-28T20:25:20.058Z,96282.22
2023-08-28T20:27:48.004Z,96278.49
2023-08-28T20:30:16.028Z,96277.54
2023-08-28T20:32:44.021Z,96279.59
2023-08-28T20:35:12.001Z,96277.29
2023-08-28T20:37:40.469Z,96277.25
2023-08-28T20:40:13.238Z,96275.67
2023-08-28T20:42:42.835Z,96273.08
2023-08-28T20:45:11.408Z,96276.23
2023-08-28T20:47:39.698Z,96274.63
2023-08-28T20:50:09.457Z,96272.47
2023-08-28T20:52:39.065Z,96274.91
2023-08-28T20:55:08.546Z,96278.88
2023-08-28T20:57:36.793Z,96279.77
2023-08-28T21:00:06.154Z,96274.95
2023-08-28T21:02:34.347Z,96275.42
2023-08-28T21:05:02.872Z,96275.90
2023-08-28T21:07:30.688Z,96269.27
2023-08-28T21:09:58.731Z,96269.92
2023-08-28T21:12:26.659Z,96269.55
2023-08-28T21:14:55.458Z,96271.94
2023-08-28T21:17:23.457Z,96268.64
2023-08-28T21:19:54.283Z,96267.55
2023-08-28T21:22:24.964Z,96268.45
2023-08-28T21:24:52.894Z,96271.66
2023-08-28T21:27:20.934Z,96274.91
2023-08-28T21:29:48.831Z,96274.98
2023-08-28T21:32:16.762Z,96279.60
2023-08-28T21:34:44.841Z,96278.20
2023-08-28T21:37:12.928Z,96279.68
2023-08-28T21:39:41.048Z,96275.13
2023-08-28T21:42:08.994Z,96277.41
2023-08-28T21:44:37.097Z,96276.89
2023-08-28T21:47:06.329Z,96278.26
2023-08-28T21:49:34.215Z,96279.94
2023-08-28T21:52:02.065Z,96279.56
2023-08-28T21:54:30.080Z,96280.02
2023-08-28T21:56:58.037Z,96278.77
2023-08-28T21:59:26.231Z,96280.36
2023-08-28T22:01:54.083Z,96279.89
2023-08-28T22:04:21.928Z,96283.67
2023-08-28T22:06:51.601Z,96293.63
2023-08-28T22:09:19.792Z,96293.45
2023-08-28T22:11:47.595Z,96298.11
2023-08-28T22:14:15.566Z,96296.48
2023-08-28T22:16:43.663Z,96297.94
2023-08-28T22:19:11.708Z,96297.98
2023-08-28T22:21:39.784Z,96297.37
2023-08-28T22:24:08.240Z,96295.96
2023-08-28T22:26:36.205Z,96296.21
2023-08-28T22:29:04.391Z,96292.55
2023-08-28T22:31:32.309Z,96289.77
2023-08-28T22:34:00.352Z,96287.48
2023-08-28T22:36:28.196Z,96291.11
2023-08-28T22:38:56.191Z,96292.84
2023-08-28T22:41:24.295Z,96295.90
2023-08-28T22:43:52.270Z,96292.30
2023-08-28T22:46:20.265Z,96288.71
2023-08-28T22:48:49.429Z,96293.48
2023-08-28T22:51:17.361Z,96291.34
2023-08-28T22:53:45.360Z,96287.71
2023-08-28T22:56:13.285Z,96288.80
2023-08-28T22:58:41.219Z,96291.38
2023-08-28T23:01:09.546Z,96290.42
2023-08-28T23:03:37.552Z,96293.38
2023-08-28T23:06:06.686Z,96295.49
2023-08-28T23:08:34.751Z,96291.84
2023-08-28T23:11:03.278Z,96289.75
2023-08-28T23:13:31.397Z,96287.95
2023-08-28T23:15:59.443Z,96288.72
2023-08-28T23:18:28.000Z,96289.63
2023-08-28T23:20:59.221Z,96297.17
2023-08-28T23:23:27.654Z,96298.92
2023-08-28T23:25:55.670Z,96289.23
2023-08-28T23:28:24.425Z,96284.52
2023-08-28T23:30:52.377Z,96280.94
2023-08-28T23:33:20.594Z,96274.53
2023-08-28T23:35:48.596Z,96280.16
2023-08-28T23:38:16.676Z,96281.09
2023-08-28T23:40:45.002Z,96276.40
2023-08-28T23:43:13.203Z,96278.15
2023-08-28T23:45:41.974Z,96274.31
2023-08-28T23:48:09.948Z,96279.14
2023-08-28T23:50:38.183Z,96281.39
2023-08-28T23:53:06.125Z,96283.69
2023-08-28T23:55:34.151Z,96287.89
2023-08-28T23:58:02.503Z,96289.86
